createdAt,value
2018-12-22T00:00:31.615Z,19.18
2018-12-22T00:01:32.026Z,19.18
2018-12-22T00:02:32.411Z,19.18
2018-12-22T00:03:31.502Z,19.17
2018-12-22T00:04:31.816Z,19.17
2018-12-22T00:05:31.570Z,19.16
2018-12-22T00:06:31.542Z,19.16
2018-12-22T00:07:31.685Z,19.16
2018-12-22T00:08:31.447Z,19.17
2018-12-22T00:09:31.497Z,19.16
2018-12-22T00:10:31.788Z,19.16
2018-12-22T00:11:31.533Z,19.16
2018-12-22T00:12:31.604Z,19.13
2018-12-22T00:13:31.594Z,19.13
2018-12-22T00:14:32.123Z,19.12
2018-12-22T00:15:32.030Z,19.13
2018-12-22T00:16:31.527Z,19.14
2018-12-22T00:17:31.849Z,19.13
2018-12-22T00:18:31.399Z,19.11
2018-12-22T00:19:31.464Z,19.13
2018-12-22T00:20:31.749Z,19.11
2018-12-22T00:21:31.485Z,19.09
2018-12-22T00:22:31.615Z,19.13
2018-12-22T00:23:31.527Z,19.11
2018-12-22T00:24:31.635Z,19.1
2018-12-22T00:25:31.452Z,19.08
2018-12-22T00:26:31.714Z,19.1
2018-12-22T00:27:31.735Z,19.08
2018-12-22T00:28:31.529Z,19.08
2018-12-22T00:29:31.779Z,19.07
2018-12-22T00:30:31.566Z,19.09
2018-12-22T00:31:30.801Z,19.07
2018-12-22T00:32:31.470Z,19.06
2018-12-22T00:33:31.752Z,19.06
2018-12-22T00:34:31.562Z,19.06
2018-12-22T00:35:31.841Z,19.07
2018-12-22T00:36:31.339Z,19.06
2018-12-22T00:37:32.310Z,19.05
2018-12-22T00:38:31.717Z,19.03
2018-12-22T00:39:31.718Z,19.05
2018-12-22T00:40:31.699Z,19.05
2018-12-22T00:41:30.968Z,19.02
2018-12-22T00:42:31.641Z,19.03
2018-12-22T00:43:31.435Z,19.02
2018-12-22T00:44:31.685Z,19.02
2018-12-22T00:45:31.502Z,19.03
2018-12-22T00:46:30.969Z,19.02
2018-12-22T00:47:32.352Z,19
2018-12-22T00:48:31.672Z,19.01
2018-12-22T00:49:31.454Z,19
2018-12-22T00:50:31.473Z,19
2018-12-22T00:51:31.554Z,19
2018-12-22T00:52:31.380Z,19
2018-12-22T00:53:31.865Z,19
2018-12-22T00:54:31.666Z,19
2018-12-22T00:55:30.984Z,18.99
2018-12-22T00:56:31.567Z,18.98
2018-12-22T00:57:31.380Z,18.98
2018-12-22T00:58:31.605Z,18.98
2018-12-22T00:59:31.683Z,18.99
2018-12-22T01:00:31.707Z,18.98
2018-12-22T01:01:31.512Z,18.97
2018-12-22T01:02:31.795Z,18.98
2018-12-22T01:03:31.702Z,18.96
2018-12-22T01:04:30.946Z,18.95
2018-12-22T01:05:31.683Z,18.95
2018-12-22T01:06:31.460Z,18.95
2018-12-22T01:07:31.454Z,18.95
2018-12-22T01:08:31.594Z,18.93
2018-12-22T01:09:31.908Z,18.94
2018-12-22T01:10:31.694Z,18.94
2018-12-22T01:11:31.683Z,18.94
2018-12-22T01:12:31.529Z,18.94
2018-12-22T01:13:31.554Z,18.91
2018-12-22T01:14:31.330Z,18.93
2018-12-22T01:15:31.664Z,18.91
2018-12-22T01:16:31.171Z,18.93
2018-12-22T01:17:31.424Z,18.94
2018-12-22T01:18:31.510Z,18.92
2018-12-22T01:19:31.502Z,18.89
2018-12-22T01:20:31.314Z,18.91
2018-12-22T01:21:31.684Z,18.91
2018-12-22T01:22:31.454Z,18.91
2018-12-22T01:23:31.687Z,18.89
2018-12-22T01:24:31.490Z,18.91
2018-12-22T01:25:31.267Z,18.89
2018-12-22T01:26:31.566Z,18.89
2018-12-22T01:27:31.331Z,18.87
2018-12-22T01:28:39.874Z,18.88
2018-12-22T01:29:31.326Z,18.88
2018-12-22T01:30:31.425Z,18.87
2018-12-22T01:31:31.421Z,18.88
2018-12-22T01:32:31.490Z,18.86
2018-12-22T01:33:31.793Z,18.87
2018-12-22T01:34:31.438Z,18.87
2018-12-22T01:35:31.606Z,18.85
2018-12-22T01:36:31.656Z,18.85
2018-12-22T01:37:30.719Z,18.87
2018-12-22T01:38:31.201Z,18.87
2018-12-22T01:39:31.855Z,18.87
2018-12-22T01:40:31.099Z,18.84
2018-12-22T01:41:31.943Z,18.82
2018-12-22T01:42:31.701Z,18.84
2018-12-22T01:43:31.756Z,18.84
2018-12-22T01:44:32.054Z,18.84
2018-12-22T01:45:31.573Z,18.85
2018-12-22T01:46:31.804Z,18.83
2018-12-22T01:47:31.404Z,18.84
2018-12-22T01:48:31.378Z,18.83
2018-12-22T01:49:30.905Z,18.8
2018-12-22T01:50:31.501Z,18.82
2018-12-22T01:51:31.812Z,18.84
2018-12-22T01:52:31.354Z,18.82
2018-12-22T01:53:31.863Z,18.82
2018-12-22T01:54:32.173Z,18.8
2018-12-22T01:55:30.945Z,18.81
2018-12-22T01:56:31.790Z,18.82
2018-12-22T01:57:31.554Z,18.82
2018-12-22T01:58:31.350Z,18.8
2018-12-22T01:59:31.369Z,18.81
2018-12-22T02:00:31.423Z,18.81
2018-12-22T02:01:31.465Z,18.78
2018-12-22T02:02:32.056Z,18.8
2018-12-22T02:03:31.532Z,18.8
2018-12-22T02:04:31.561Z,18.8
2018-12-22T02:05:31.631Z,18.79
2018-12-22T02:06:31.409Z,18.79
2018-12-22T02:07:31.716Z,18.77
2018-12-22T02:08:31.705Z,18.77
2018-12-22T02:09:31.512Z,18.77
2018-12-22T02:10:31.619Z,18.77
2018-12-22T02:11:31.571Z,18.77
2018-12-22T02:12:31.448Z,18.77
2018-12-22T02:13:31.438Z,18.77
2018-12-22T02:14:31.493Z,18.77
2018-12-22T02:15:31.552Z,18.77
2018-12-22T02:16:31.354Z,18.76
2018-12-22T02:17:31.616Z,18.74
2018-12-22T02:18:31.889Z,18.74
2018-12-22T02:19:31.203Z,18.76
2018-12-22T02:20:31.508Z,18.73
2018-12-22T02:21:31.473Z,18.73
2018-12-22T02:22:31.622Z,18.73
2018-12-22T02:23:31.588Z,18.73
2018-12-22T02:24:31.712Z,18.72
2018-12-22T02:25:31.446Z,18.74
2018-12-22T02:26:31.776Z,18.76
2018-12-22T02:27:31.261Z,18.7
2018-12-22T02:28:31.316Z,18.72
2018-12-22T02:29:31.610Z,18.72
2018-12-22T02:30:31.652Z,18.72
2018-12-22T02:31:31.448Z,18.71
2018-12-22T02:32:31.510Z,18.7
2018-12-22T02:33:31.489Z,18.72
2018-12-22T02:34:31.294Z,18.69
2018-12-22T02:35:31.578Z,18.7
2018-12-22T02:36:31.681Z,18.71
2018-12-22T02:37:31.727Z,18.7
2018-12-22T02:38:31.453Z,18.72
2018-12-22T02:39:31.535Z,18.69
2018-12-22T02:40:31.857Z,18.7
2018-12-22T02:41:31.674Z,18.69
2018-12-22T02:42:31.994Z,18.68
2018-12-22T02:43:32.101Z,18.7
2018-12-22T02:44:31.895Z,18.69
2018-12-22T02:45:31.554Z,18.7
2018-12-22T02:46:31.297Z,18.68
2018-12-22T02:47:31.594Z,18.69
2018-12-22T02:48:31.402Z,18.68
2018-12-22T02:49:31.535Z,18.66
2018-12-22T02:50:31.496Z,18.66
2018-12-22T02:51:31.790Z,18.68
2018-12-22T02:52:31.365Z,18.67
2018-12-22T02:53:31.864Z,18.67
2018-12-22T02:54:31.584Z,18.67
2018-12-22T02:55:31.635Z,18.66
2018-12-22T02:56:31.238Z,18.67
2018-12-22T02:57:31.855Z,18.66
2018-12-22T02:58:31.644Z,18.67
2018-12-22T02:59:31.613Z,18.66
2018-12-22T03:00:31.492Z,18.66
2018-12-22T03:01:31.486Z,18.66
2018-12-22T03:02:31.307Z,18.66
2018-12-22T03:03:31.560Z,18.63
2018-12-22T03:04:31.395Z,18.63
2018-12-22T03:05:31.411Z,18.64
2018-12-22T03:06:31.485Z,18.62
2018-12-22T03:07:31.768Z,18.63
2018-12-22T03:08:31.651Z,18.63
2018-12-22T03:09:31.558Z,18.62
2018-12-22T03:10:31.837Z,18.64
2018-12-22T03:11:31.423Z,18.62
2018-12-22T03:12:31.713Z,18.63
2018-12-22T03:13:31.511Z,18.64
2018-12-22T03:14:31.782Z,18.62
2018-12-22T03:15:31.609Z,18.62
2018-12-22T03:16:31.562Z,18.62
2018-12-22T03:17:31.687Z,18.62
2018-12-22T03:18:31.805Z,18.62
2018-12-22T03:19:31.725Z,18.61
2018-12-22T03:20:31.814Z,18.59
2018-12-22T03:21:31.532Z,18.62
2018-12-22T03:22:32.310Z,18.61
2018-12-22T03:23:31.614Z,18.61
2018-12-22T03:24:31.381Z,18.59
2018-12-22T03:25:31.232Z,18.58
2018-12-22T03:26:31.730Z,18.61
2018-12-22T03:27:31.297Z,18.58
2018-12-22T03:28:31.359Z,18.59
2018-12-22T03:29:31.674Z,18.59
2018-12-22T03:30:31.976Z,18.57
2018-12-22T03:31:31.726Z,18.59
2018-12-22T03:32:31.526Z,18.58
2018-12-22T03:33:31.533Z,18.59
2018-12-22T03:34:31.629Z,18.57
2018-12-22T03:35:31.398Z,18.57
2018-12-22T03:36:31.380Z,18.57
2018-12-22T03:37:31.447Z,18.56
2018-12-22T03:38:31.951Z,18.56
2018-12-22T03:39:31.274Z,18.57
2018-12-22T03:40:31.805Z,18.56
2018-12-22T03:41:31.603Z,18.55
2018-12-22T03:42:31.577Z,18.55
2018-12-22T03:43:30.918Z,18.54
2018-12-22T03:44:31.745Z,18.54
2018-12-22T03:45:31.835Z,18.56
2018-12-22T03:46:30.977Z,18.53
2018-12-22T03:47:31.640Z,18.57
2018-12-22T03:48:32.229Z,18.53
2018-12-22T03:49:31.523Z,18.54
2018-12-22T03:50:31.785Z,18.53
2018-12-22T03:51:30.808Z,18.54
2018-12-22T03:52:31.110Z,18.53
2018-12-22T03:53:31.410Z,18.53
2018-12-22T03:54:31.732Z,18.54
2018-12-22T03:55:31.236Z,18.53
2018-12-22T03:56:31.725Z,18.54
2018-12-22T03:57:31.333Z,18.53
2018-12-22T03:58:31.617Z,18.54
2018-12-22T03:59:31.617Z,18.53
2018-12-22T04:00:30.940Z,18.53
2018-12-22T04:01:31.743Z,18.53
2018-12-22T04:02:31.291Z,18.53
2018-12-22T04:03:31.590Z,18.49
2018-12-22T04:04:32.039Z,18.5
2018-12-22T04:05:31.632Z,18.49
2018-12-22T04:06:31.483Z,18.52
2018-12-22T04:07:31.468Z,18.51
2018-12-22T04:08:31.796Z,18.53
2018-12-22T04:09:32.274Z,18.53
2018-12-22T04:10:31.609Z,18.52
2018-12-22T04:11:31.431Z,18.49
2018-12-22T04:12:31.720Z,18.5
2018-12-22T04:13:31.454Z,18.5
2018-12-22T04:14:31.583Z,18.51
2018-12-22T04:15:31.785Z,18.5
2018-12-22T04:16:31.587Z,18.49
2018-12-22T04:17:31.657Z,18.49
2018-12-22T04:18:31.666Z,18.49
2018-12-22T04:19:31.479Z,18.49
2018-12-22T04:20:31.473Z,18.49
2018-12-22T04:21:31.534Z,18.47
2018-12-22T04:22:31.575Z,18.47
2018-12-22T04:23:31.603Z,18.47
2018-12-22T04:24:31.926Z,18.46
2018-12-22T04:25:30.912Z,18.48
2018-12-22T04:26:31.747Z,18.47
2018-12-22T04:27:31.299Z,18.47
2018-12-22T04:28:31.852Z,18.48
2018-12-22T04:29:34.619Z,18.47
2018-12-22T04:30:31.874Z,18.48
2018-12-22T04:31:30.799Z,18.48
2018-12-22T04:32:31.461Z,18.44
2018-12-22T04:33:31.481Z,18.46
2018-12-22T04:34:32.041Z,18.44
2018-12-22T04:35:31.579Z,18.44
2018-12-22T04:36:31.392Z,18.46
2018-12-22T04:37:31.083Z,18.48
2018-12-22T04:38:31.399Z,18.46
2018-12-22T04:39:31.768Z,18.43
2018-12-22T04:40:31.737Z,18.46
2018-12-22T04:41:31.354Z,18.44
2018-12-22T04:42:31.441Z,18.47
2018-12-22T04:43:31.490Z,18.46
2018-12-22T04:44:31.744Z,18.46
2018-12-22T04:45:31.829Z,18.46
2018-12-22T04:46:31.595Z,18.44
2018-12-22T04:47:31.587Z,18.44
2018-12-22T04:48:31.407Z,18.47
2018-12-22T04:49:31.428Z,18.47
2018-12-22T04:50:31.662Z,18.47
2018-12-22T04:51:31.548Z,18.5
2018-12-22T04:52:31.113Z,18.49
2018-12-22T04:53:31.540Z,18.48
2018-12-22T04:54:31.368Z,18.49
2018-12-22T04:55:31.426Z,18.49
2018-12-22T04:56:31.478Z,18.49
2018-12-22T04:57:31.440Z,18.49
2018-12-22T04:58:31.532Z,18.5
2018-12-22T04:59:31.540Z,18.51
2018-12-22T05:00:31.338Z,18.52
2018-12-22T05:01:31.569Z,18.52
2018-12-22T05:02:31.867Z,18.54
2018-12-22T05:03:31.489Z,18.57
2018-12-22T05:04:31.434Z,18.57
2018-12-22T05:05:31.815Z,18.57
2018-12-22T05:06:31.550Z,18.57
2018-12-22T05:07:31.391Z,18.61
2018-12-22T05:08:31.618Z,18.63
2018-12-22T05:09:31.135Z,18.62
2018-12-22T05:10:31.496Z,18.62
2018-12-22T05:11:31.452Z,18.64
2018-12-22T05:12:31.711Z,18.66
2018-12-22T05:13:31.130Z,18.66
2018-12-22T05:14:31.656Z,18.65
2018-12-22T05:15:31.192Z,18.68
2018-12-22T05:16:32.265Z,18.7
2018-12-22T05:17:31.569Z,18.69
2018-12-22T05:18:31.552Z,18.69
2018-12-22T05:19:31.617Z,18.72
2018-12-22T05:20:31.437Z,18.74
2018-12-22T05:21:31.699Z,18.73
2018-12-22T05:22:31.504Z,18.77
2018-12-22T05:23:30.719Z,18.78
2018-12-22T05:24:31.290Z,18.78
2018-12-22T05:25:31.420Z,18.78
2018-12-22T05:26:31.400Z,18.8
2018-12-22T05:27:31.497Z,18.82
2018-12-22T05:28:31.462Z,18.8
2018-12-22T05:29:31.567Z,18.83
2018-12-22T05:30:31.387Z,18.84
2018-12-22T05:31:31.604Z,18.84
2018-12-22T05:32:31.666Z,18.87
2018-12-22T05:33:31.723Z,18.84
2018-12-22T05:34:31.486Z,18.89
2018-12-22T05:35:31.296Z,18.89
2018-12-22T05:36:31.987Z,18.92
2018-12-22T05:37:31.398Z,18.92
2018-12-22T05:38:31.694Z,18.93
2018-12-22T05:39:31.511Z,18.94
2018-12-22T05:40:31.251Z,18.93
2018-12-22T05:41:31.918Z,18.95
2018-12-22T05:42:31.621Z,18.94
2018-12-22T05:43:31.663Z,18.96
2018-12-22T05:44:31.484Z,18.97
2018-12-22T05:45:31.284Z,19
2018-12-22T05:46:31.591Z,18.99
2018-12-22T05:47:31.389Z,19
2018-12-22T05:48:31.397Z,19.01
2018-12-22T05:49:31.183Z,19.02
2018-12-22T05:50:31.254Z,19.06
2018-12-22T05:51:31.269Z,19.06
2018-12-22T05:52:31.816Z,19.06
2018-12-22T05:53:31.330Z,19.08
2018-12-22T05:54:31.649Z,19.09
2018-12-22T05:55:31.749Z,19.11
2018-12-22T05:56:31.515Z,19.1
2018-12-22T05:57:31.517Z,19.12
2018-12-22T05:58:31.264Z,19.13
2018-12-22T05:59:31.820Z,19.12
2018-12-22T06:00:31.359Z,19.14
2018-12-22T06:01:31.652Z,19.14
2018-12-22T06:02:31.189Z,19.16
2018-12-22T06:03:31.499Z,19.15
2018-12-22T06:04:31.806Z,19.15
2018-12-22T06:05:31.292Z,19.18
2018-12-22T06:06:30.957Z,19.2
2018-12-22T06:07:31.356Z,19.2
2018-12-22T06:08:31.807Z,19.21
2018-12-22T06:09:31.508Z,19.18
2018-12-22T06:10:31.258Z,19.2
2018-12-22T06:11:31.603Z,19.22
2018-12-22T06:12:31.365Z,19.23
2018-12-22T06:13:32.168Z,19.23
2018-12-22T06:14:31.487Z,19.23
2018-12-22T06:15:31.493Z,19.24
2018-12-22T06:16:31.541Z,19.25
2018-12-22T06:17:31.341Z,19.25
2018-12-22T06:18:31.877Z,19.26
2018-12-22T06:19:30.860Z,19.26
2018-12-22T06:20:31.700Z,19.27
2018-12-22T06:21:31.293Z,19.27
2018-12-22T06:22:31.560Z,19.29
2018-12-22T06:23:31.570Z,19.27
2018-12-22T06:24:31.325Z,19.29
2018-12-22T06:25:31.585Z,19.3
2018-12-22T06:26:31.377Z,19.32
2018-12-22T06:27:31.138Z,19.31
2018-12-22T06:28:31.439Z,19.32
2018-12-22T06:29:31.262Z,19.31
2018-12-22T06:30:31.787Z,19.32
2018-12-22T06:31:31.115Z,19.33
2018-12-22T06:32:31.364Z,19.33
2018-12-22T06:33:31.354Z,19.33
2018-12-22T06:34:30.992Z,19.36
2018-12-22T06:35:31.756Z,19.36
2018-12-22T06:36:31.554Z,19.37
2018-12-22T06:37:31.068Z,19.38
2018-12-22T06:38:31.346Z,19.36
2018-12-22T06:39:31.405Z,19.4
2018-12-22T06:40:30.919Z,19.4
2018-12-22T06:41:31.466Z,19.39
2018-12-22T06:42:31.277Z,19.4
2018-12-22T06:43:31.322Z,19.4
2018-12-22T06:44:31.341Z,19.43
2018-12-22T06:45:31.358Z,19.43
2018-12-22T06:46:31.635Z,19.43
2018-12-22T06:47:31.464Z,19.44
2018-12-22T06:48:31.496Z,19.45
2018-12-22T06:49:31.281Z,19.46
2018-12-22T06:50:31.617Z,19.45
2018-12-22T06:51:31.384Z,19.46
2018-12-22T06:52:31.371Z,19.46
2018-12-22T06:53:31.426Z,19.46
2018-12-22T06:54:31.764Z,19.47
2018-12-22T06:55:31.241Z,19.46
2018-12-22T06:56:31.539Z,19.48
2018-12-22T06:57:31.594Z,19.48
2018-12-22T06:58:31.392Z,19.51
2018-12-22T06:59:31.410Z,19.5
2018-12-22T07:00:31.509Z,19.51
2018-12-22T07:01:31.819Z,19.51
2018-12-22T07:02:31.025Z,19.51
2018-12-22T07:03:31.154Z,19.51
2018-12-22T07:04:31.402Z,19.5
2018-12-22T07:05:31.497Z,19.52
2018-12-22T07:06:31.263Z,19.51
2018-12-22T07:07:31.574Z,19.52
2018-12-22T07:08:31.602Z,19.51
2018-12-22T07:09:31.672Z,19.54
2018-12-22T07:10:31.401Z,19.53
2018-12-22T07:11:31.648Z,19.52
2018-12-22T07:12:31.520Z,19.54
2018-12-22T07:13:31.455Z,19.53
2018-12-22T07:14:31.463Z,19.53
2018-12-22T07:15:31.400Z,19.52
2018-12-22T07:16:31.197Z,19.54
2018-12-22T07:17:31.660Z,19.54
2018-12-22T07:18:31.653Z,19.54
2018-12-22T07:19:31.100Z,19.53
2018-12-22T07:20:31.854Z,19.54
2018-12-22T07:21:31.664Z,19.55
2018-12-22T07:22:30.952Z,19.56
2018-12-22T07:23:31.512Z,19.55
2018-12-22T07:24:31.222Z,19.54
2018-12-22T07:25:31.035Z,19.56
2018-12-22T07:26:31.340Z,19.53
2018-12-22T07:27:31.434Z,19.57
2018-12-22T07:28:31.380Z,19.56
2018-12-22T07:29:31.212Z,19.57
2018-12-22T07:30:31.809Z,19.56
2018-12-22T07:31:31.523Z,19.56
2018-12-22T07:32:30.792Z,19.57
2018-12-22T07:33:31.392Z,19.58
2018-12-22T07:34:31.608Z,19.58
2018-12-22T07:35:31.412Z,19.57
2018-12-22T07:36:31.210Z,19.57
2018-12-22T07:37:31.259Z,19.58
2018-12-22T07:38:31.551Z,19.58
2018-12-22T07:39:31.577Z,19.58
2018-12-22T07:40:31.548Z,19.59
2018-12-22T07:41:31.403Z,19.59
2018-12-22T07:42:31.421Z,19.6
2018-12-22T07:43:31.640Z,19.61
2018-12-22T07:44:31.251Z,19.61
2018-12-22T07:45:31.575Z,19.61
2018-12-22T07:46:32.073Z,19.62
2018-12-22T07:47:31.331Z,19.62
2018-12-22T07:48:31.625Z,19.65
2018-12-22T07:49:31.711Z,19.66
2018-12-22T07:50:31.480Z,19.65
2018-12-22T07:51:31.485Z,19.65
2018-12-22T07:52:31.258Z,19.66
2018-12-22T07:53:31.844Z,19.66
2018-12-22T07:54:31.386Z,19.67
2018-12-22T07:55:31.404Z,19.67
2018-12-22T07:56:31.442Z,19.67
2018-12-22T07:57:31.736Z,19.67
2018-12-22T07:58:31.489Z,19.69
2018-12-22T07:59:31.275Z,19.67
2018-12-22T08:00:35.525Z,19.68
2018-12-22T08:01:31.314Z,19.7
2018-12-22T08:02:31.417Z,19.68
2018-12-22T08:03:31.397Z,19.71
2018-12-22T08:04:31.437Z,19.71
2018-12-22T08:05:39.326Z,19.72
2018-12-22T08:06:31.183Z,19.71
2018-12-22T08:07:31.766Z,19.72
2018-12-22T08:08:31.237Z,19.71
2018-12-22T08:09:31.392Z,19.7
2018-12-22T08:10:31.182Z,19.73
2018-12-22T08:11:31.488Z,19.74
2018-12-22T08:12:31.470Z,19.74
2018-12-22T08:13:31.762Z,19.73
2018-12-22T08:14:31.339Z,19.73
2018-12-22T08:15:31.331Z,19.73
2018-12-22T08:16:31.121Z,19.75
2018-12-22T08:17:31.409Z,19.75
2018-12-22T08:18:31.477Z,19.74
2018-12-22T08:19:31.314Z,19.75
2018-12-22T08:20:31.279Z,19.76
2018-12-22T08:21:31.396Z,19.74
2018-12-22T08:22:30.879Z,19.77
2018-12-22T08:23:31.445Z,19.75
2018-12-22T08:24:31.248Z,19.75
2018-12-22T08:25:31.070Z,19.77
2018-12-22T08:26:31.828Z,19.75
2018-12-22T08:27:31.372Z,19.74
2018-12-22T08:28:31.156Z,19.75
2018-12-22T08:29:31.472Z,19.74
2018-12-22T08:30:31.742Z,19.76
2018-12-22T08:31:31.525Z,19.76
2018-12-22T08:32:31.603Z,19.77
2018-12-22T08:33:31.398Z,19.79
2018-12-22T08:34:31.675Z,19.76
2018-12-22T08:35:31.150Z,19.76
2018-12-22T08:36:31.418Z,19.79
2018-12-22T08:37:31.225Z,19.76
2018-12-22T08:38:31.276Z,19.8
2018-12-22T08:39:31.374Z,19.79
2018-12-22T08:40:31.123Z,19.77
2018-12-22T08:41:31.383Z,19.77
2018-12-22T08:42:31.467Z,19.77
2018-12-22T08:43:31.451Z,19.79
2018-12-22T08:44:31.276Z,19.76
2018-12-22T08:45:31.395Z,19.8
2018-12-22T08:46:31.319Z,19.79
2018-12-22T08:47:30.830Z,19.8
2018-12-22T08:48:31.458Z,19.8
2018-12-22T08:49:32.187Z,19.8
2018-12-22T08:50:31.530Z,19.79
2018-12-22T08:51:30.493Z,19.8
2018-12-22T08:52:31.616Z,19.81
2018-12-22T08:53:31.356Z,19.82
2018-12-22T08:54:31.474Z,19.82
2018-12-22T08:55:31.447Z,19.81
2018-12-22T08:56:30.962Z,19.8
2018-12-22T08:57:31.580Z,19.81
2018-12-22T08:58:31.676Z,19.82
2018-12-22T08:59:31.098Z,19.8
2018-12-22T09:00:31.457Z,19.82
2018-12-22T09:01:31.206Z,19.82
2018-12-22T09:02:31.272Z,19.83
2018-12-22T09:03:31.578Z,19.82
2018-12-22T09:04:31.567Z,19.82
2018-12-22T09:05:31.449Z,19.82
2018-12-22T09:06:31.686Z,19.83
2018-12-22T09:07:31.433Z,19.82
2018-12-22T09:08:30.929Z,19.82
2018-12-22T09:09:31.393Z,19.84
2018-12-22T09:10:31.372Z,19.84
2018-12-22T09:11:31.706Z,19.83
2018-12-22T09:12:32.240Z,19.83
2018-12-22T09:13:31.281Z,19.82
2018-12-22T09:14:31.779Z,19.85
2018-12-22T09:15:31.381Z,19.84
2018-12-22T09:16:31.393Z,19.84
2018-12-22T09:17:31.444Z,19.83
2018-12-22T09:18:31.194Z,19.83
2018-12-22T09:19:31.309Z,19.85
2018-12-22T09:20:32.021Z,19.83
2018-12-22T09:21:31.601Z,19.83
2018-12-22T09:22:31.101Z,19.84
2018-12-22T09:23:31.664Z,19.83
2018-12-22T09:24:31.225Z,19.82
2018-12-22T09:25:31.240Z,19.84
2018-12-22T09:26:31.330Z,19.82
2018-12-22T09:27:31.622Z,19.83
2018-12-22T09:28:31.424Z,19.85
2018-12-22T09:29:31.431Z,19.85
2018-12-22T09:30:31.207Z,19.83
2018-12-22T09:31:33.348Z,19.85
2018-12-22T09:32:31.554Z,19.86
2018-12-22T09:33:31.331Z,19.83
2018-12-22T09:34:32.123Z,19.85
2018-12-22T09:35:31.407Z,19.84
2018-12-22T09:36:31.219Z,19.84
2018-12-22T09:37:31.494Z,19.84
2018-12-22T09:38:31.263Z,19.84
2018-12-22T09:39:31.295Z,19.84
2018-12-22T09:40:31.541Z,19.82
2018-12-22T09:41:32.185Z,19.84
2018-12-22T09:42:31.209Z,19.83
2018-12-22T09:43:30.979Z,19.84
2018-12-22T09:44:31.581Z,19.84
2018-12-22T09:45:31.556Z,19.84
2018-12-22T09:46:32.160Z,19.84
2018-12-22T09:47:31.483Z,19.84
2018-12-22T09:48:31.224Z,19.86
2018-12-22T09:49:31.195Z,19.84
2018-12-22T09:50:31.314Z,19.85
2018-12-22T09:51:31.386Z,19.87
2018-12-22T09:52:31.075Z,19.86
2018-12-22T09:53:31.271Z,19.85
2018-12-22T09:54:31.364Z,19.88
2018-12-22T09:55:31.217Z,19.9
2018-12-22T09:56:31.480Z,19.89
2018-12-22T09:57:31.238Z,19.94
2018-12-22T09:58:31.020Z,19.91
2018-12-22T09:59:31.351Z,19.94
2018-12-22T10:00:31.639Z,19.92
2018-12-22T10:01:30.897Z,19.97
2018-12-22T10:02:31.207Z,19.96
2018-12-22T10:03:31.213Z,20
2018-12-22T10:04:31.296Z,20.01
2018-12-22T10:05:31.313Z,20
2018-12-22T10:06:31.583Z,20
2018-12-22T10:07:31.357Z,20.02
2018-12-22T10:08:31.658Z,20.05
2018-12-22T10:09:31.608Z,20.04
2018-12-22T10:10:31.196Z,20.05
2018-12-22T10:11:31.332Z,20.06
2018-12-22T10:12:31.588Z,20.07
2018-12-22T10:13:31.366Z,20.1
2018-12-22T10:14:31.353Z,20.1
2018-12-22T10:15:31.435Z,20.09
2018-12-22T10:16:28.256Z,20.18
2018-12-22T10:17:28.336Z,20.2
2018-12-22T10:18:28.483Z,20.21
2018-12-22T10:19:11.381Z,20.21
2018-12-22T10:20:11.675Z,20.28
2018-12-22T10:21:11.480Z,20.31
2018-12-22T10:22:11.535Z,20.32
2018-12-22T10:23:11.819Z,20.34
2018-12-22T10:24:11.608Z,20.34
2018-12-22T10:25:11.609Z,20.37
2018-12-22T10:26:11.694Z,20.4
2018-12-22T10:27:12.225Z,20.39
2018-12-22T10:28:11.523Z,20.41
2018-12-22T10:29:11.845Z,20.41
2018-12-22T10:30:11.268Z,20.41
2018-12-22T10:31:18.561Z,20.43
2018-12-22T10:32:11.292Z,20.44
2018-12-22T10:33:11.321Z,20.45
2018-12-22T10:34:11.903Z,20.47
2018-12-22T10:35:11.141Z,20.5
2018-12-22T10:36:11.491Z,20.5
2018-12-22T10:37:11.792Z,20.53
2018-12-22T10:38:11.813Z,20.55
2018-12-22T10:39:11.386Z,20.56
2018-12-22T10:40:11.865Z,20.57
2018-12-22T10:41:11.628Z,20.59
2018-12-22T10:42:11.389Z,20.6
2018-12-22T10:42:49.421Z,20.58
2018-12-22T10:43:49.501Z,20.61
2018-12-22T10:44:49.495Z,20.64
2018-12-22T10:45:38.761Z,20.63
2018-12-22T10:46:38.510Z,20.65
2018-12-22T10:47:38.809Z,20.66
2018-12-22T10:48:38.320Z,20.69
2018-12-22T10:49:38.878Z,20.71
2018-12-22T10:50:37.824Z,20.71
2018-12-22T10:51:38.956Z,20.72
2018-12-22T10:52:38.975Z,20.72
2018-12-22T10:53:55.467Z,20.75
2018-12-22T10:54:55.021Z,20.75
2018-12-22T10:55:55.306Z,20.75
2018-12-22T10:56:55.032Z,20.77
2018-12-22T10:57:55.356Z,20.81
2018-12-22T10:58:40.692Z,20.83
2018-12-22T10:59:40.506Z,20.84
2018-12-22T11:00:40.349Z,20.84
2018-12-22T11:01:40.099Z,20.84
2018-12-22T11:02:40.389Z,20.88
2018-12-22T11:03:39.835Z,20.88
2018-12-22T11:04:40.248Z,20.86
2018-12-22T11:06:14.228Z,20.89
2018-12-22T11:07:14.039Z,20.9
2018-12-22T11:08:14.509Z,20.91
2018-12-22T11:09:14.827Z,20.91
2018-12-22T11:10:14.276Z,20.92
2018-12-22T11:11:14.212Z,20.89
2018-12-22T11:12:14.224Z,20.91
2018-12-22T11:13:14.283Z,20.93
2018-12-22T11:14:14.110Z,20.9
2018-12-22T11:15:14.237Z,20.92
2018-12-22T11:16:14.556Z,20.88
2018-12-22T11:17:14.253Z,20.89
2018-12-22T11:18:14.241Z,20.89
2018-12-22T11:19:14.177Z,20.88
2018-12-22T11:20:14.167Z,20.9
2018-12-22T11:21:14.444Z,20.89
2018-12-22T11:22:14.970Z,20.89
2018-12-22T11:23:20.981Z,20.88
2018-12-22T11:24:14.462Z,20.92
2018-12-22T11:25:13.882Z,20.92
2018-12-22T11:26:13.873Z,20.92
2018-12-22T11:27:13.823Z,20.91
2018-12-22T11:28:14.291Z,20.89
2018-12-22T11:29:14.589Z,20.9
2018-12-22T11:30:14.328Z,20.91
2018-12-22T11:31:14.246Z,20.91
2018-12-22T11:32:14.211Z,20.87
2018-12-22T11:33:14.244Z,20.88
2018-12-22T11:34:14.288Z,20.88
2018-12-22T11:35:14.222Z,20.88
2018-12-22T11:36:14.420Z,20.88
2018-12-22T11:37:14.166Z,20.87
2018-12-22T11:38:14.377Z,20.88
2018-12-22T11:39:14.114Z,20.87
2018-12-22T11:40:14.394Z,20.87
2018-12-22T11:41:14.193Z,20.88
2018-12-22T11:42:14.333Z,20.88
2018-12-22T11:43:14.124Z,20.86
2018-12-22T11:44:14.152Z,20.85
2018-12-22T11:45:12.936Z,20.87
2018-12-22T11:46:14.144Z,20.88
2018-12-22T11:47:14.108Z,20.87
2018-12-22T11:48:14.339Z,20.86
2018-12-22T11:49:13.914Z,20.88
2018-12-22T11:50:14.132Z,20.87
2018-12-22T11:51:14.362Z,20.87
2018-12-22T11:52:14.814Z,20.88
2018-12-22T11:53:14.026Z,20.88
2018-12-22T11:54:14.798Z,20.88
2018-12-22T11:55:14.636Z,20.87
2018-12-22T11:56:14.276Z,20.88
2018-12-22T11:57:14.032Z,20.88
2018-12-22T11:58:14.527Z,20.88
2018-12-22T11:59:14.183Z,20.89
2018-12-22T12:00:19.039Z,20.87
2018-12-22T12:01:14.410Z,20.88
2018-12-22T12:02:13.891Z,20.89
2018-12-22T12:03:14.139Z,20.88
2018-12-22T12:04:14.605Z,20.9
2018-12-22T12:05:14.126Z,20.89
2018-12-22T12:06:14.347Z,20.91
2018-12-22T12:07:14.371Z,20.89
2018-12-22T12:08:14.518Z,20.89
2018-12-22T12:09:14.436Z,20.88
2018-12-22T12:10:14.288Z,20.9
2018-12-22T12:11:14.444Z,20.89
2018-12-22T12:12:14.252Z,20.91
2018-12-22T12:13:14.501Z,20.91
2018-12-22T12:14:14.728Z,20.91
2018-12-22T12:15:13.050Z,20.95
2018-12-22T12:16:14.484Z,20.9
2018-12-22T12:17:14.228Z,20.93
2018-12-22T12:17:54.670Z,20.95
2018-12-22T12:18:54.406Z,20.96
2018-12-22T12:20:01.571Z,20.96
2018-12-22T12:22:16.982Z,21
2018-12-22T12:23:18.407Z,21
2018-12-22T12:24:18.419Z,21
2018-12-22T12:25:17.981Z,21
2018-12-22T12:26:18.255Z,21
2018-12-22T12:27:18.322Z,21.02
2018-12-22T12:28:18.746Z,21.02
2018-12-22T12:29:19.299Z,21.02
2018-12-22T12:30:18.724Z,21.02
2018-12-22T12:31:18.770Z,21.05
2018-12-22T12:31:53.115Z,21.02
2018-12-22T12:32:53.001Z,21.03
2018-12-22T12:33:24.096Z,21.04
2018-12-22T12:34:24.211Z,21.05
2018-12-22T12:35:24.358Z,21.05
2018-12-22T12:36:24.281Z,21.06
2018-12-22T12:37:24.267Z,21.05
2018-12-22T12:38:24.990Z,21.05
2018-12-22T12:39:24.504Z,21.06
2018-12-22T12:40:24.511Z,21.06
2018-12-22T12:41:35.525Z,21.06
2018-12-22T12:42:17.523Z,21.06
2018-12-22T12:43:17.289Z,21.04
2018-12-22T12:44:16.978Z,21.06
2018-12-22T12:45:17.239Z,21.04
2018-12-22T12:46:17.487Z,21.05
2018-12-22T12:47:17.210Z,21.05
2018-12-22T12:48:17.194Z,21.02
2018-12-22T12:49:16.177Z,21.02
2018-12-22T12:50:16.978Z,20.99
2018-12-22T12:51:07.707Z,20.99
2018-12-22T12:52:07.430Z,21
2018-12-22T12:53:10.200Z,21.02
2018-12-22T12:54:07.593Z,21.01
2018-12-22T12:55:07.945Z,21.01
2018-12-22T12:56:07.657Z,21.04